Time;durP1;ratioP1;P1;durP2;ratioP2;P2;SDS_P1;SDS_P2;PMS_P1;PMS_P2;Temp;Humidity;BMP_temperature;BMP_pressure;BME280_temperature;BME280_humidity;BME280_pressure;Samples;Min_cycle;Max_cycle;Signal;HPM_P1;HPM_P2
2021/05/14 00:01:49;;;;;;;1999.90;999.90;;;13.00;99.90;;;;;;5045142;28;20165;-85
2021/05/14 00:04:18;;;;;;;1999.90;999.90;;;13.00;99.90;;;;;;5045998;28;20434;-85
2021/05/14 00:06:44;;;;;;;1999.90;999.90;;;12.90;1.00;;;;;;5044672;28;20406;-85
2021/05/14 00:09:10;;;;;;;1999.90;999.90;;;12.90;1.00;;;;;;5044049;28;20483;-85
2021/05/14 00:11:35;;;;;;;1999.90;999.90;;;12.90;1.00;;;;;;5044019;28;20166;-85
2021/05/14 00:14:01;;;;;;;1999.90;999.90;;;12.90;1.00;;;;;;5044270;28;20168;-85
2021/05/14 00:16:27;;;;;;;1999.90;999.90;;;12.80;1.00;;;;;;5043410;28;20241;-85
2021/05/14 00:18:52;;;;;;;1999.90;999.90;;;12.70;1.00;;;;;;5026259;28;20197;-85
2021/05/14 00:21:18;;;;;;;1999.90;999.90;;;12.70;1.00;;;;;;5044008;28;20248;-85
2021/05/14 00:23:44;;;;;;;1999.90;999.90;;;12.60;1.00;;;;;;5043508;28;20193;-85
2021/05/14 00:26:09;;;;;;;1999.90;999.90;;;12.60;1.00;;;;;;5043217;28;20588;-85
2021/05/14 00:28:35;;;;;;;1999.90;999.90;;;12.60;1.00;;;;;;5025561;28;20197;-85
2021/05/14 00:31:01;;;;;;;1999.90;999.90;;;12.60;1.00;;;;;;5043107;28;20165;-85
2021/05/14 00:33:26;;;;;;;1999.90;999.90;;;12.60;1.00;;;;;;5025648;28;20173;-85
2021/05/14 00:35:52;;;;;;;1999.90;999.90;;;12.50;1.00;;;;;;5043270;28;20153;-85
2021/05/14 00:38:18;;;;;;;1999.90;999.90;;;12.60;99.90;;;;;;5043034;28;20219;-85
2021/05/14 00:40:44;;;;;;;1999.90;999.90;;;12.50;1.00;;;;;;5025606;28;20169;-85
2021/05/14 00:43:09;;;;;;;1999.90;999.90;;;12.50;1.00;;;;;;5024122;28;20583;-85
2021/05/14 00:45:35;;;;;;;1999.90;999.90;;;12.40;1.00;;;;;;5043513;28;20269;-85
2021/05/14 00:48:00;;;;;;;1999.90;999.90;;;12.30;1.00;;;;;;5043443;28;20185;-85
2021/05/14 00:50:26;;;;;;;1999.90;999.90;;;12.20;35.40;;;;;;5042899;28;20188;-85
2021/05/14 00:52:52;;;;;;;1999.90;999.90;;;12.20;1.00;;;;;;5043216;28;20177;-85
2021/05/14 00:55:18;;;;;;;1999.90;999.90;;;12.30;99.90;;;;;;5043577;28;20186;-85
2021/05/14 00:57:44;;;;;;;1999.90;999.90;;;12.10;99.90;;;;;;5025018;28;20193;-85
2021/05/14 01:00:10;;;;;;;1999.90;999.90;;;12.10;1.00;;;;;;5043804;28;20169;-85
2021/05/14 01:02:36;;;;;;;1999.90;999.90;;;12.00;1.00;;;;;;5043900;28;20168;-85
2021/05/14 01:05:03;;;;;;;1999.90;999.90;;;12.10;99.90;;;;;;5025355;28;20165;-85
2021/05/14 01:07:29;;;;;;;1999.90;999.90;;;12.00;1.00;;;;;;5042779;28;20185;-85
2021/05/14 01:09:55;;;;;;;1999.90;999.90;;;11.90;1.00;;;;;;5025428;28;20200;-85
2021/05/14 01:12:21;;;;;;;1999.90;999.90;;;11.90;1.00;;;;;;5043563;28;20165;-85
2021/05/14 01:14:47;;;;;;;1999.90;999.90;;;11.90;1.00;;;;;;5043117;28;20216;-85
2021/05/14 01:17:13;;;;;;;1999.90;999.90;;;11.80;1.00;;;;;;5025967;28;20664;-85
2021/05/14 01:19:38;;;;;;;1999.90;999.90;;;11.70;1.00;;;;;;5043273;28;20167;-85
2021/05/14 01:22:04;;;;;;;1999.90;999.90;;;11.70;1.00;;;;;;5043022;28;20404;-85
2021/05/14 01:24:31;;;;;;;1999.90;999.90;;;11.70;1.00;;;;;;5042537;28;20165;-85
2021/05/14 01:26:58;;;;;;;1999.90;999.90;;;11.80;1.00;;;;;;5025311;28;20234;-85
2021/05/14 01:29:23;;;;;;;1999.90;999.90;;;11.80;1.00;;;;;;5042608;28;20233;-85
2021/05/14 01:31:50;;;;;;;1999.90;999.90;;;11.80;1.00;;;;;;5042503;28;20165;-85
2021/05/14 01:34:16;;;;;;;1999.90;999.90;;;11.70;42.10;;;;;;5043986;28;20164;-85
2021/05/14 01:36:42;;;;;;;1999.90;999.90;;;11.60;4.00;;;;;;5016531;28;20169;-85
2021/05/14 01:39:23;;;;;;;1999.90;999.90;;;11.60;1.00;;;;;;5041882;28;20235;-85
2021/05/14 01:41:49;;;;;;;1999.90;999.90;;;11.70;1.00;;;;;;5043200;28;20751;-85
2021/05/14 01:44:15;;;;;;;1999.90;999.90;;;11.80;99.90;;;;;;5042179;28;20211;-85
2021/05/14 01:46:41;;;;;;;1999.90;999.90;;;11.90;99.90;;;;;;5042364;28;20161;-85
2021/05/14 01:49:07;;;;;;;1999.90;999.90;;;11.90;1.00;;;;;;5024863;28;20702;-85
2021/05/14 01:51:33;;;;;;;1999.90;999.90;;;11.70;99.90;;;;;;5042638;28;20169;-85
2021/05/14 01:53:59;;;;;;;1999.90;999.90;;;11.70;68.30;;;;;;5024860;28;20158;-85
2021/05/14 01:56:24;;;;;;;1999.90;999.90;;;11.70;9.30;;;;;;5043290;28;20568;-85
2021/05/14 01:58:51;;;;;;;1999.90;999.90;;;11.60;99.90;;;;;;5043803;28;20208;-85
2021/05/14 02:01:18;;;;;;;1999.90;999.90;;;11.60;1.00;;;;;;5024666;28;20314;-85
2021/05/14 02:03:44;;;;;;;1999.90;999.90;;;11.50;86.80;;;;;;5044198;28;20170;-85
2021/05/14 02:06:10;;;;;;;1999.90;999.90;;;11.50;99.90;;;;;;5041946;28;20169;-85
2021/05/14 02:08:37;;;;;;;1999.90;999.90;;;11.50;99.90;;;;;;5042722;28;20284;-85
2021/05/14 02:11:03;;;;;;;1999.90;999.90;;;11.40;99.90;;;;;;5024684;28;20165;-85
2021/05/14 02:13:29;;;;;;;1999.90;999.90;;;11.30;22.90;;;;;;5042860;28;20161;-85
2021/05/14 02:15:55;;;;;;;1999.90;999.90;;;11.30;99.90;;;;;;5057715;28;20639;-85
2021/05/14 02:18:21;;;;;;;1999.90;999.90;;;11.20;99.90;;;;;;5042877;28;20185;-85
2021/05/14 02:20:47;;;;;;;1999.90;999.90;;;11.20;99.90;;;;;;5043264;28;20535;-85
2021/05/14 02:23:13;;;;;;;1999.90;999.90;;;11.30;36.60;;;;;;5025157;28;20424;-85
2021/05/14 02:25:39;;;;;;;1999.90;999.90;;;11.30;1.00;;;;;;5042365;28;20200;-85
2021/05/14 02:28:06;;;;;;;1999.90;999.90;;;11.30;1.00;;;;;;5042773;28;20265;-85
2021/05/14 02:30:32;;;;;;;1999.90;999.90;;;11.20;1.00;;;;;;5024729;28;20176;-85
2021/05/14 02:32:58;;;;;;;1999.90;999.90;;;11.20;99.90;;;;;;5043633;28;20157;-85
2021/05/14 02:35:24;;;;;;;1999.90;999.90;;;11.20;1.00;;;;;;5041746;28;20176;-84
2021/05/14 02:37:50;;;;;;;1999.90;999.90;;;11.20;1.00;;;;;;5042152;28;20231;-85
2021/05/14 02:40:15;;;;;;;1999.90;999.90;;;11.10;1.00;;;;;;5042361;28;20439;-85
2021/05/14 02:42:41;;;;;;;1999.90;999.90;;;11.10;1.00;;;;;;5041902;28;20408;-85
2021/05/14 02:45:08;;;;;;;1999.90;999.90;;;11.10;1.00;;;;;;5042471;28;20165;-85
2021/05/14 02:47:34;;;;;;;1999.90;999.90;;;11.10;1.00;;;;;;5024355;28;20231;-85
2021/05/14 02:50:00;;;;;;;1999.90;999.90;;;11.00;1.00;;;;;;5042215;28;20197;-85
2021/05/14 02:52:26;;;;;;;1999.90;999.90;;;10.90;1.00;;;;;;5042174;28;20490;-85
2021/05/14 02:54:51;;;;;;;1999.90;999.90;;;10.80;1.00;;;;;;5042789;28;20423;-85
2021/05/14 02:57:18;;;;;;;1999.90;999.90;;;10.80;1.00;;;;;;5024965;28;20656;-85
2021/05/14 02:59:44;;;;;;;1999.90;999.90;;;10.60;1.00;;;;;;5042711;28;20173;-85
2021/05/14 03:02:09;;;;;;;1999.90;999.90;;;10.60;1.00;;;;;;5043065;28;20193;-85
2021/05/14 03:04:35;;;;;;;1999.90;999.90;;;10.50;1.00;;;;;;5042956;28;20165;-85
2021/05/14 03:07:01;;;;;;;1999.90;999.90;;;10.50;1.00;;;;;;5042877;28;20196;-85
2021/05/14 03:09:27;;;;;;;1999.90;999.90;;;10.50;1.00;;;;;;5047282;28;20181;-85
2021/05/14 03:11:53;;;;;;;1999.90;999.90;;;10.40;32.80;;;;;;5028995;28;20198;-85
2021/05/14 03:14:19;;;;;;;1999.90;999.90;;;10.40;51.50;;;;;;5046284;28;20174;-85
2021/05/14 03:16:45;;;;;;;1999.90;999.90;;;10.30;82.90;;;;;;5046226;28;20181;-85
2021/05/14 03:19:11;;;;;;;1999.90;999.90;;;10.30;99.90;;;;;;5046034;28;20423;-85
2021/05/14 03:21:37;;;;;;;1999.90;999.90;;;10.40;41.70;;;;;;5045580;28;20182;-85
2021/05/14 03:24:03;;;;;;;1999.90;999.90;;;10.30;99.90;;;;;;5046031;28;20439;-85
2021/05/14 03:26:29;;;;;;;1999.90;999.90;;;10.30;99.90;;;;;;5045931;28;20169;-85
2021/05/14 03:28:55;;;;;;;1999.90;999.90;;;10.20;99.90;;;;;;5046511;28;20190;-85
2021/05/14 03:31:23;;;;;;;1999.90;999.90;;;10.20;99.90;;;;;;5028355;28;20171;-85
2021/05/14 03:33:49;;;;;;;1999.90;999.90;;;10.30;91.60;;;;;;5046127;28;20161;-85
2021/05/14 03:36:19;;;;;;;1999.90;999.90;;;10.30;99.90;;;;;;5046066;28;20166;-85
2021/05/14 03:38:45;;;;;;;1999.90;999.90;;;10.20;99.90;;;;;;5045218;28;20193;-85
2021/05/14 03:41:19;;;;;;;1999.90;999.90;;;10.20;99.90;;;;;;5046155;28;20169;-85
2021/05/14 03:43:46;;;;;;;1999.90;999.90;;;10.20;99.90;;;;;;5045417;28;20146;-85
2021/05/14 03:46:11;;;;;;;1999.90;999.90;;;10.30;99.90;;;;;;5045503;28;20161;-85
2021/05/14 03:48:37;;;;;;;1999.90;999.90;;;10.30;99.90;;;;;;5026747;28;20692;-85
2021/05/14 03:51:03;;;;;;;1999.90;999.90;;;10.30;99.90;;;;;;5027723;28;20167;-85
2021/05/14 03:53:29;;;;;;;1999.90;999.90;;;10.30;99.90;;;;;;5044854;28;20415;-85
2021/05/14 03:55:55;;;;;;;1999.90;999.90;;;10.20;99.90;;;;;;5044773;28;20176;-85
2021/05/14 03:58:20;;;;;;;1999.90;999.90;;;10.10;99.90;;;;;;5044903;28;20188;-85
2021/05/14 04:00:46;;;;;;;1999.90;999.90;;;10.10;99.90;;;;;;5044747;28;20232;-85
2021/05/14 04:03:15;;;;;;;1999.90;999.90;;;10.10;99.90;;;;;;5045308;28;20169;-85
2021/05/14 04:05:41;;;;;;;1999.90;999.90;;;10.00;99.90;;;;;;5027391;28;20173;-85
2021/05/14 04:08:07;;;;;;;1999.90;999.90;;;10.10;99.90;;;;;;5044648;28;20197;-85
2021/05/14 04:15:43;;;;;;;1999.90;999.90;;;10.10;99.90;;;;;;5045226;28;20152;-85
2021/05/14 04:18:09;;;;;;;1999.90;999.90;;;10.10;99.90;;;;;;5043320;28;20185;-86
2021/05/14 04:20:35;;;;;;;1999.90;999.90;;;10.00;1.00;;;;;;5044537;28;20204;-85
2021/05/14 04:23:00;;;;;;;1999.90;999.90;;;10.10;1.00;;;;;;5044429;28;20169;-85
2021/05/14 04:25:26;;;;;;;1999.90;999.90;;;10.10;1.00;;;;;;5027135;28;20196;-85
2021/05/14 04:27:52;;;;;;;1999.90;999.90;;;10.10;1.00;;;;;;5059322;28;20182;-85
2021/05/14 04:30:18;;;;;;;1999.90;999.90;;;10.10;1.00;;;;;;5026881;28;20212;-85
2021/05/14 04:32:43;;;;;;;1999.90;999.90;;;10.20;1.00;;;;;;5043998;28;20157;-85
2021/05/14 04:35:09;;;;;;;1999.90;999.90;;;10.20;1.00;;;;;;5043899;28;20400;-85
2021/05/14 04:37:35;;;;;;;1999.90;999.90;;;10.20;1.00;;;;;;5043831;28;20683;-85
2021/05/14 04:40:01;;;;;;;1999.90;999.90;;;10.30;1.00;;;;;;5026194;28;20431;-85
2021/05/14 04:42:27;;;;;;;1999.90;999.90;;;10.30;1.00;;;;;;5044070;28;20165;-85
2021/05/14 04:44:52;;;;;;;1999.90;999.90;;;10.30;1.00;;;;;;5044261;28;20165;-85
2021/05/14 04:47:18;;;;;;;1999.90;999.90;;;10.30;1.00;;;;;;5043703;28;20227;-85
2021/05/14 04:49:44;;;;;;;1999.90;999.90;;;10.30;1.00;;;;;;5043408;28;20186;-85
2021/05/14 04:52:24;;;;;;;1999.90;999.90;;;10.40;1.00;;;;;;5043938;28;20173;-85
2021/05/14 04:54:50;;;;;;;1999.90;999.90;;;10.40;2.40;;;;;;5026147;28;20159;-85
2021/05/14 04:57:16;;;;;;;1999.90;999.90;;;10.50;1.00;;;;;;5042203;28;20277;-85
2021/05/14 04:59:42;;;;;;;1999.90;999.90;;;10.50;1.00;;;;;;5043734;28;20169;-85
2021/05/14 05:02:08;;;;;;;1999.90;999.90;;;10.60;1.00;;;;;;5058313;28;20170;-85
2021/05/14 05:04:36;;;;;;;1999.90;999.90;;;10.60;18.00;;;;;;5043134;28;20411;-85
2021/05/14 05:07:03;;;;;;;1999.90;999.90;;;10.70;99.90;;;;;;5043159;28;20185;-85
2021/05/14 05:09:29;;;;;;;1999.90;999.90;;;10.70;1.00;;;;;;5112469;23;20687;-83
2021/05/14 05:11:55;;;;;;;1999.90;999.90;;;10.70;79.70;;;;;;5061162;28;20202;-83
2021/05/14 05:14:23;;;;;;;1999.90;999.90;;;10.80;1.00;;;;;;5061071;28;20433;-82
2021/05/14 05:16:50;;;;;;;1999.90;999.90;;;10.90;1.00;;;;;;5042780;28;20228;-83
2021/05/14 05:19:16;;;;;;;1999.90;999.90;;;10.90;1.00;;;;;;5061207;28;20256;-82
2021/05/14 05:21:41;;;;;;;1999.90;999.90;;;11.00;8.70;;;;;;5043130;28;20168;-83
2021/05/14 05:24:08;;;;;;;1999.90;999.90;;;11.10;1.00;;;;;;5043452;28;20168;-83
2021/05/14 05:26:33;;;;;;;1999.90;999.90;;;11.10;1.00;;;;;;5042383;28;20277;-83
2021/05/14 05:29:02;;;;;;;1999.90;999.90;;;11.20;1.00;;;;;;5060828;28;20192;-83
2021/05/14 05:31:27;;;;;;;1999.90;999.90;;;11.20;1.00;;;;;;5043250;28;20241;-83
2021/05/14 05:33:53;;;;;;;1999.90;999.90;;;11.30;99.90;;;;;;5061103;28;20196;-82
2021/05/14 05:36:19;;;;;;;1999.90;999.90;;;11.40;99.90;;;;;;5060952;28;20164;-83
2021/05/14 05:38:46;;;;;;;1999.90;999.90;;;11.40;99.90;;;;;;5042889;28;20210;-83
2021/05/14 05:41:12;;;;;;;1999.90;999.90;;;11.50;1.00;;;;;;5060431;28;20165;-83
2021/05/14 05:43:38;;;;;;;1999.90;999.90;;;11.50;1.00;;;;;;5061379;28;20531;-83
2021/05/14 05:46:04;;;;;;;1999.90;999.90;;;11.60;99.90;;;;;;5061447;28;20164;-83
2021/05/14 05:48:29;;;;;;;1999.90;999.90;;;11.60;99.90;;;;;;5061462;28;20242;-83
2021/05/14 05:50:55;;;;;;;1999.90;999.90;;;11.60;25.40;;;;;;5043541;28;20255;-83
2021/05/14 05:53:21;;;;;;;1999.90;999.90;;;11.70;1.00;;;;;;5060890;28;20164;-84
2021/05/14 05:55:47;;;;;;;1999.90;999.90;;;11.80;99.90;;;;;;5062744;28;20157;-83
2021/05/14 05:58:15;;;;;;;1999.90;999.90;;;11.90;99.90;;;;;;5062372;28;20415;-83
2021/05/14 06:00:41;;;;;;;1999.90;999.90;;;12.10;1.00;;;;;;5061562;28;20213;-83
2021/05/14 06:03:10;;;;;;;1999.90;999.90;;;12.10;96.20;;;;;;5044568;28;20624;-81
2021/05/14 06:05:37;;;;;;;1999.90;999.90;;;12.20;99.90;;;;;;5042812;28;20172;-83
2021/05/14 06:08:03;;;;;;;1999.90;999.90;;;12.20;1.00;;;;;;5062621;28;20200;-83
2021/05/14 06:10:29;;;;;;;1999.90;999.90;;;12.20;99.90;;;;;;5062031;28;20210;-83
2021/05/14 06:12:56;;;;;;;1999.90;999.90;;;12.30;1.00;;;;;;5043917;28;20203;-83
2021/05/14 06:15:22;;;;;;;1999.90;999.90;;;12.40;1.00;;;;;;5061330;28;20156;-82
2021/05/14 06:17:49;;;;;;;1999.90;999.90;;;12.40;1.00;;;;;;5043113;28;20187;-83
2021/05/14 06:20:18;;;;;;;1999.90;999.90;;;12.50;99.90;;;;;;5058809;28;20207;-81
2021/05/14 06:22:44;;;;;;;1999.90;999.90;;;12.50;1.00;;;;;;5059626;28;20188;-83
2021/05/14 06:25:13;;;;;;;1999.90;999.90;;;12.50;1.00;;;;;;5060165;28;20165;-84
2021/05/14 06:27:38;;;;;;;1999.90;999.90;;;12.60;9.50;;;;;;5060024;28;20426;-83
2021/05/14 06:30:05;;;;;;;1999.90;999.90;;;12.60;12.90;;;;;;5060373;28;20192;-83
2021/05/14 06:32:31;;;;;;;1999.90;999.90;;;12.60;18.60;;;;;;5059208;28;20199;-82
2021/05/14 06:34:57;;;;;;;1999.90;999.90;;;12.70;1.00;;;;;;5060006;28;20160;-83
2021/05/14 06:37:23;;;;;;;1999.90;999.90;;;12.80;22.90;;;;;;5059921;28;20454;-82
2021/05/14 06:39:48;;;;;;;1999.90;999.90;;;12.90;29.00;;;;;;5059151;28;20169;-82
2021/05/14 06:42:15;;;;;;;1999.90;999.90;;;12.90;3.30;;;;;;5041010;28;20177;-83
2021/05/14 06:44:41;;;;;;;1999.90;999.90;;;12.90;8.20;;;;;;5040925;28;20172;-82
2021/05/14 06:47:07;;;;;;;1999.90;999.90;;;13.00;23.50;;;;;;5059308;28;20403;-82
2021/05/14 06:49:33;;;;;;;1999.90;999.90;;;13.10;13.40;;;;;;5059000;28;20291;-82
2021/05/14 06:51:59;;;;;;;1999.90;999.90;;;13.20;25.80;;;;;;5041318;28;20165;-81
2021/05/14 06:54:24;;;;;;;1999.90;999.90;;;13.10;5.20;;;;;;5058952;28;20449;-83
2021/05/14 06:56:53;;;;;;;1999.90;999.90;;;13.20;1.00;;;;;;5058900;28;20160;-83
2021/05/14 06:59:19;;;;;;;1999.90;999.90;;;13.40;40.80;;;;;;5059150;28;20489;-83
2021/05/14 07:01:45;;;;;;;1999.90;999.90;;;13.40;93.90;;;;;;5041085;28;20497;-83
2021/05/14 07:04:11;;;;;;;1999.90;999.90;;;13.40;94.70;;;;;;5059152;28;20268;-81
2021/05/14 07:06:37;;;;;;;1999.90;999.90;;;13.40;88.20;;;;;;5058875;28;20165;-82
2021/05/14 07:09:04;;;;;;;1999.90;999.90;;;13.50;65.30;;;;;;5041203;28;20473;-83
2021/05/14 07:11:29;;;;;;;1999.90;999.90;;;13.60;68.00;;;;;;5059249;28;20371;-83
2021/05/14 07:13:55;;;;;;;1999.90;999.90;;;13.60;67.00;;;;;;5059096;28;20453;-82
2021/05/14 07:16:21;;;;;;;1999.90;999.90;;;13.70;66.30;;;;;;5058947;28;20199;-84
2021/05/14 07:18:47;;;;;;;1999.90;999.90;;;13.70;64.50;;;;;;5059554;28;20425;-83
2021/05/14 07:21:13;;;;;;;1999.90;999.90;;;13.80;79.00;;;;;;5042085;28;20161;-83
2021/05/14 07:23:38;;;;;;;1999.90;999.90;;;13.90;77.10;;;;;;5059156;28;20490;-84
2021/05/14 07:26:04;;;;;;;1999.90;999.90;;;14.00;73.00;;;;;;5058940;28;20232;-83
2021/05/14 07:28:33;;;;;;;1999.90;999.90;;;14.20;74.20;;;;;;5058474;28;20450;-81
2021/05/14 07:30:59;;;;;;;1999.90;999.90;;;14.30;58.80;;;;;;5040697;28;20175;-83
2021/05/14 07:33:24;;;;;;;1999.90;999.90;;;14.40;84.60;;;;;;5058427;28;20406;-84
2021/05/14 07:35:50;;;;;;;1999.90;999.90;;;14.50;81.40;;;;;;5041937;28;20165;-84
2021/05/14 07:38:16;;;;;;;1999.90;999.90;;;14.60;88.00;;;;;;5059313;28;20188;-83
2021/05/14 07:40:43;;;;;;;1999.90;999.90;;;14.70;86.70;;;;;;5058696;28;20242;-83
2021/05/14 07:43:09;;;;;;;1999.90;999.90;;;14.80;82.90;;;;;;5058610;28;20407;-84
2021/05/14 07:45:35;;;;;;;1999.90;999.90;;;14.90;78.30;;;;;;5041064;28;20407;-83
2021/05/14 07:48:01;;;;;;;1999.90;999.90;;;14.90;77.40;;;;;;5058399;28;20430;-84
2021/05/14 07:50:28;;;;;;;1999.90;999.90;;;14.90;77.70;;;;;;5058576;28;20469;-82
2021/05/14 07:52:53;;;;;;;1999.90;999.90;;;14.90;78.80;;;;;;5060954;28;20403;-83
2021/05/14 07:55:19;;;;;;;1999.90;999.90;;;15.00;89.90;;;;;;5061343;28;20401;-83
2021/05/14 07:57:45;;;;;;;1999.90;999.90;;;15.00;82.20;;;;;;5062158;28;20180;-83
2021/05/14 08:00:11;;;;;;;1999.90;999.90;;;14.90;81.90;;;;;;5062557;28;20407;-84
2021/05/14 08:02:37;;;;;;;1999.90;999.90;;;15.00;81.50;;;;;;5045319;28;20176;-84
2021/05/14 08:05:03;;;;;;;1999.90;999.90;;;15.00;88.90;;;;;;5063178;28;20916;-83
2021/05/14 08:07:28;;;;;;;1999.90;999.90;;;15.00;96.20;;;;;;5045642;28;20193;-83
2021/05/14 08:09:54;;;;;;;1999.90;999.90;;;15.00;92.40;;;;;;5044251;28;20463;-83
2021/05/14 08:12:22;;;;;;;1999.90;999.90;;;15.00;94.00;;;;;;5061651;28;20169;-82
2021/05/14 08:14:48;;;;;;;1999.90;999.90;;;14.90;94.50;;;;;;5043061;28;20542;-83
2021/05/14 08:17:23;;;;;;;1999.90;999.90;;;14.80;95.00;;;;;;5043087;28;20431;-83
2021/05/14 08:19:48;;;;;;;1999.90;999.90;;;14.90;93.60;;;;;;5042994;28;20581;-82
2021/05/14 08:22:14;;;;;;;1999.90;999.90;;;14.80;93.20;;;;;;5060990;28;20395;-83
2021/05/14 08:24:40;;;;;;;1999.90;999.90;;;14.90;90.10;;;;;;5061478;28;20555;-84
2021/05/14 08:27:06;;;;;;;1999.90;999.90;;;14.90;88.30;;;;;;5061742;28;20165;-82
2021/05/14 08:29:31;;;;;;;1999.90;999.90;;;14.90;88.40;;;;;;5061709;28;20577;-82
2021/05/14 08:31:57;;;;;;;1999.90;999.90;;;15.00;91.80;;;;;;5042956;28;20541;-82
2021/05/14 08:34:23;;;;;;;1999.90;999.90;;;15.00;94.50;;;;;;5061597;28;20168;-83
2021/05/14 08:36:48;;;;;;;1999.90;999.90;;;14.90;93.80;;;;;;5043771;28;20273;-83
2021/05/14 08:39:14;;;;;;;1999.90;999.90;;;15.00;95.10;;;;;;5043758;28;20193;-83
2021/05/14 08:41:40;;;;;;;1999.90;999.90;;;15.10;98.10;;;;;;5062055;28;20195;-83
2021/05/14 08:44:06;;;;;;;1999.90;999.90;;;15.20;97.30;;;;;;5044169;28;20172;-83
2021/05/14 08:46:36;;;;;;;1999.90;999.90;;;15.20;99.90;;;;;;5043590;28;20169;-83
2021/05/14 08:49:02;;;;;;;1999.90;999.90;;;15.30;99.90;;;;;;5061871;28;20439;-84
2021/05/14 08:51:28;;;;;;;1999.90;999.90;;;15.30;99.90;;;;;;5061862;28;20398;-82
2021/05/14 08:54:06;;;;;;;1999.90;999.90;;;15.40;99.90;;;;;;5061403;28;20406;-83
2021/05/14 08:56:32;;;;;;;1999.90;999.90;;;15.40;99.90;;;;;;5061221;28;20372;-84
2021/05/14 08:58:59;;;;;;;1999.90;999.90;;;15.30;99.90;;;;;;5043354;28;20459;-84
2021/05/14 09:01:26;;;;;;;1999.90;999.90;;;15.40;99.90;;;;;;5061333;28;20457;-84
2021/05/14 09:04:11;;;;;;;1999.90;999.90;;;15.50;99.90;;;;;;5060666;28;20417;-83
2021/05/14 09:06:39;;;;;;;1999.90;999.90;;;15.80;99.90;;;;;;5062175;28;20401;-84
2021/05/14 09:09:09;;;;;;;1999.90;999.90;;;15.90;99.90;;;;;;5061889;28;20465;-83
2021/05/14 09:11:47;;;;;;;1999.90;999.90;;;16.10;99.90;;;;;;5061564;28;20383;-83
2021/05/14 09:14:36;;;;;;;1999.90;999.90;;;16.10;99.90;;;;;;5044437;28;20404;-84
2021/05/14 09:17:07;;;;;;;1999.90;999.90;;;16.30;99.90;;;;;;5043298;28;20486;-83
2021/05/14 09:19:34;;;;;;;1999.90;999.90;;;16.30;99.90;;;;;;5043303;28;20445;-82
2021/05/14 09:22:37;;;;;;;1999.90;999.90;;;16.50;99.90;;;;;;5060495;28;20450;-82
2021/05/14 09:25:06;;;;;;;1999.90;999.90;;;16.60;99.90;;;;;;4959728;29;21010;-83
2021/05/14 09:27:32;;;;;;;1999.90;999.90;;;16.70;99.90;;;;;;5024679;28;20520;-82
2021/05/14 09:30:01;;;;;;;1999.90;999.90;;;16.80;99.90;;;;;;5041475;28;20463;-81
2021/05/14 09:32:35;;;;;;;1999.90;999.90;;;16.90;99.90;;;;;;5059716;28;20403;-83
2021/05/14 09:35:03;;;;;;;1999.90;999.90;;;17.00;99.90;;;;;;5042448;28;20458;-82
2021/05/14 09:37:29;;;;;;;1999.90;999.90;;;17.00;99.90;;;;;;5059165;28;20520;-82
2021/05/14 09:40:18;;;;;;;1999.90;999.90;;;17.10;99.90;;;;;;5042062;28;20438;-82
2021/05/14 09:42:58;;;;;;;1999.90;999.90;;;17.10;99.90;;;;;;5058883;28;20514;-82
2021/05/14 09:45:26;;;;;;;1999.90;999.90;;;17.40;99.90;;;;;;5058662;28;20446;-82
2021/05/14 09:48:14;;;;;;;1999.90;999.90;;;17.40;98.20;;;;;;5057924;28;20524;-83
2021/05/14 09:50:39;;;;;;;1999.90;999.90;;;17.50;99.90;;;;;;5060132;28;20433;-83
2021/05/14 09:53:11;;;;;;;1999.90;999.90;;;17.70;96.30;;;;;;5060135;28;20406;-83
2021/05/14 09:55:38;;;;;;;1999.90;999.90;;;17.60;95.90;;;;;;5060355;28;20161;-83
2021/05/14 09:58:13;;;;;;;1999.90;999.90;;;17.60;94.20;;;;;;5041853;28;20412;-83
2021/05/14 10:00:39;;;;;;;1999.90;999.90;;;17.50;92.20;;;;;;5060671;28;20428;-83
2021/05/14 10:03:06;;;;;;;1999.90;999.90;;;17.50;92.10;;;;;;5059787;28;20430;-83
2021/05/14 10:05:36;;;;;;;1999.90;999.90;;;17.50;92.30;;;;;;5041655;28;20480;-83
2021/05/14 10:08:03;;;;;;;1999.90;999.90;;;17.60;95.90;;;;;;5059816;28;20426;-83
2021/05/14 10:10:35;;;;;;;1999.90;999.90;;;17.70;94.10;;;;;;5060140;28;20464;-83
2021/05/14 10:13:06;;;;;;;1999.90;999.90;;;17.60;94.60;;;;;;5042344;28;20945;-83
2021/05/14 10:15:32;;;;;;;1999.90;999.90;;;17.70;92.70;;;;;;5058365;28;20394;-83
2021/05/14 10:18:03;;;;;;;1999.90;999.90;;;17.50;85.90;;;;;;5041998;28;20868;-83
2021/05/14 10:20:30;;;;;;;1999.90;999.90;;;17.40;89.00;;;;;;5059912;28;20414;-82
2021/05/14 10:22:58;;;;;;;1999.90;999.90;;;17.40;92.80;;;;;;5041403;28;20436;-83
2021/05/14 10:25:43;;;;;;;1999.90;999.90;;;17.30;93.90;;;;;;5060931;28;20848;-83
2021/05/14 10:28:24;;;;;;;1999.90;999.90;;;17.30;95.30;;;;;;5060306;28;20522;-83
2021/05/14 10:31:07;;;;;;;1999.90;999.90;;;17.20;95.80;;;;;;5060144;28;20512;-83
2021/05/14 10:33:50;;;;;;;1999.90;999.90;;;17.20;95.00;;;;;;5060009;28;20427;-83
2021/05/14 10:36:22;;;;;;;1999.90;999.90;;;17.20;94.30;;;;;;5060215;28;20437;-82
2021/05/14 10:39:08;;;;;;;1999.90;999.90;;;17.10;95.20;;;;;;5059220;28;20462;-83
2021/05/14 10:41:55;;;;;;;1999.90;999.90;;;17.10;94.80;;;;;;5059642;28;20394;-83
2021/05/14 10:44:40;;;;;;;1999.90;999.90;;;17.00;99.10;;;;;;5060205;28;20385;-84
2021/05/14 10:47:24;;;;;;;1999.90;999.90;;;16.90;99.90;;;;;;5059876;28;20459;-84
2021/05/14 10:50:04;;;;;;;1999.90;999.90;;;16.60;99.90;;;;;;5042031;28;20444;-83
2021/05/14 10:52:31;;;;;;;1999.90;999.90;;;16.40;99.90;;;;;;5041355;28;20392;-83
2021/05/14 10:54:57;;;;;;;1999.90;999.90;;;16.20;99.90;;;;;;5042309;28;20411;-81
2021/05/14 10:57:46;;;;;;;1999.90;999.90;;;16.00;99.90;;;;;;5059068;28;20427;-83
2021/05/14 11:00:26;;;;;;;1999.90;999.90;;;16.00;99.90;;;;;;5059264;28;20405;-83
2021/05/14 11:03:11;;;;;;;1999.90;999.90;;;16.00;99.90;;;;;;5042063;28;20426;-83
2021/05/14 11:05:41;;;;;;;1999.90;999.90;;;15.80;99.90;;;;;;5060559;28;20464;-83
2021/05/14 11:08:35;;;;;;;1999.90;999.90;;;15.70;99.90;;;;;;5060449;28;20422;-84
2021/05/14 11:11:04;;;;;;;1999.90;999.90;;;15.50;99.90;;;;;;5042093;28;20432;-83
2021/05/14 11:13:51;;;;;;;1999.90;999.90;;;15.50;99.90;;;;;;5060185;28;20391;-84
2021/05/14 11:16:38;;;;;;;1999.90;999.90;;;15.40;99.90;;;;;;5041458;28;20392;-83
2021/05/14 11:19:30;;;;;;;1999.90;999.90;;;15.50;99.90;;;;;;5041660;28;20433;-82
2021/05/14 11:21:59;;;;;;;1999.90;999.90;;;15.60;99.90;;;;;;5042078;28;20392;-83
2021/05/14 11:24:32;;;;;;;1999.90;999.90;;;15.70;99.90;;;;;;5041889;28;20399;-83
2021/05/14 11:26:59;;;;;;;1999.90;999.90;;;15.80;99.90;;;;;;5059909;28;20411;-84
2021/05/14 11:29:33;;;;;;;1999.90;999.90;;;16.00;99.90;;;;;;5045613;28;20467;-83
2021/05/14 11:32:15;;;;;;;1999.90;999.90;;;16.20;99.90;;;;;;5044572;28;20406;-83
2021/05/14 11:35:13;;;;;;;1999.90;999.90;;;16.30;99.90;;;;;;5045114;28;20435;-84
2021/05/14 11:37:56;;;;;;;1999.90;999.90;;;16.50;99.90;;;;;;5043536;28;20434;-84
2021/05/14 11:40:30;;;;;;;1999.90;999.90;;;16.60;99.90;;;;;;5063103;28;20405;-82
2021/05/14 11:42:58;;;;;;;1999.90;999.90;;;16.90;99.90;;;;;;5061824;28;20393;-82
2021/05/14 11:45:25;;;;;;;1999.90;999.90;;;17.20;99.90;;;;;;5062705;28;20792;-84
2021/05/14 11:48:07;;;;;;;1999.90;999.90;;;17.40;98.40;;;;;;5061669;28;20421;-83
2021/05/14 11:50:36;;;;;;;1999.90;999.90;;;17.70;99.30;;;;;;5062358;28;20428;-83
2021/05/14 11:53:07;;;;;;;1999.90;999.90;;;18.00;95.20;;;;;;5062436;28;20412;-83
2021/05/14 11:55:41;;;;;;;1999.90;999.90;;;18.10;96.60;;;;;;5044125;28;20399;-83
2021/05/14 11:58:08;;;;;;;1999.90;999.90;;;18.10;60.80;;;;;;5076927;23;20561;-84
2021/05/14 12:00:36;;;;;;;1999.90;999.90;;;18.20;75.20;;;;;;5044119;28;20451;-84
2021/05/14 12:03:07;;;;;;;1999.90;999.90;;;18.30;61.40;;;;;;5063928;28;20402;-84
2021/05/14 12:05:34;;;;;;;1999.90;999.90;;;18.30;68.60;;;;;;5064651;28;20423;-84
2021/05/14 12:08:13;;;;;;;1999.90;999.90;;;18.40;70.60;;;;;;5082682;28;20484;-83
2021/05/14 12:10:50;;;;;;;1999.90;999.90;;;18.40;66.20;;;;;;5082891;28;20410;-84
2021/05/14 12:13:39;;;;;;;1999.90;999.90;;;18.60;52.20;;;;;;5083615;28;20406;-84